Time;durP1;ratioP1;P1;durP2;ratioP2;P2;SDS_P1;SDS_P2;PMS_P1;PMS_P2;Temp;Humidity;BMP_temperature;BMP_pressure;BME280_temperature;BME280_humidity;BME280_pressure;Samples;Min_cycle;Max_cycle;Signal;HPM_P1;HPM_P2
2022/08/07 00:00:26;;;;;;;7.30;3.20;;;;;21.64;97401.20;;;;111134;1247;41150;-66
2022/08/07 00:03:10;;;;;;;6.40;2.80;;;;;21.68;97402.20;;;;111087;1247;41159;-65
2022/08/07 00:05:41;;;;;;;7.80;2.90;;;;;21.60;97395.60;;;;111032;1247;41616;-66
2022/08/07 00:08:10;;;;;;;6.80;3.00;;;;;21.60;97400.40;;;;111113;1248;41140;-65
2022/08/07 00:10:40;;;;;;;7.10;3.00;;;;;21.60;97396.60;;;;111070;1247;41827;-65
2022/08/07 00:13:16;;;;;;;7.60;3.00;;;;;21.56;97397.60;;;;111145;1248;42007;-65
2022/08/07 00:15:54;;;;;;;7.40;2.90;;;;;21.50;97396.20;;;;111093;1248;41259;-66
2022/08/07 00:18:27;;;;;;;8.20;3.40;;;;;21.50;97400.20;;;;111108;1248;41805;-65
2022/08/07 00:21:01;;;;;;;8.20;3.70;;;;;21.40;97405.20;;;;110639;1251;41150;-66
2022/08/07 00:23:37;;;;;;;9.40;3.70;;;;;21.30;97406.60;;;;111007;1249;41546;-65
2022/08/07 00:26:09;;;;;;;8.30;3.90;;;;;21.20;97402.00;;;;111082;1248;42387;-65
2022/08/07 00:28:42;;;;;;;10.00;4.30;;;;;21.00;97402.40;;;;111078;1247;42446;-65
2022/08/07 00:31:13;;;;;;;9.20;3.70;;;;;20.80;97404.00;;;;111091;1248;41663;-64
2022/08/07 00:33:44;;;;;;;8.50;3.80;;;;;20.70;97402.20;;;;110643;1250;41516;-65
2022/08/07 00:36:15;;;;;;;7.10;3.20;;;;;20.70;97401.00;;;;110747;1250;41178;-65
2022/08/07 00:38:45;;;;;;;7.70;3.30;;;;;20.70;97402.60;;;;110860;1250;41468;-65
2022/08/07 00:41:14;;;;;;;7.10;3.10;;;;;20.70;97404.80;;;;111178;1250;41252;-65
2022/08/07 00:43:44;;;;;;;7.20;3.20;;;;;20.70;97407.60;;;;111091;1248;41254;-65
2022/08/07 00:46:31;;;;;;;8.70;3.00;;;;;20.70;97407.00;;;;111114;1248;41820;-66
2022/08/07 00:49:01;;;;;;;8.10;3.50;;;;;20.70;97410.40;;;;110826;1250;41891;-67
2022/08/07 00:51:32;;;;;;;8.10;3.50;;;;;20.70;97412.20;;;;111366;1247;41629;-67
2022/08/07 00:54:22;;;;;;;7.30;3.30;;;;;20.70;97414.60;;;;111159;1250;41310;-66
2022/08/07 00:56:52;;;;;;;10.50;3.60;;;;;20.70;97415.20;;;;111280;1247;41612;-67
2022/08/07 00:59:22;;;;;;;9.30;3.80;;;;;20.70;97412.60;;;;111303;1247;41154;-67
2022/08/07 01:02:06;;;;;;;9.00;4.30;;;;;20.72;97410.00;;;;111304;1247;41338;-66
2022/08/07 01:04:38;;;;;;;8.90;4.10;;;;;20.70;97410.20;;;;111346;1247;41138;-67
2022/08/07 01:07:12;;;;;;;8.50;3.80;;;;;20.60;97412.60;;;;111106;1248;41182;-68
2022/08/07 01:09:43;;;;;;;7.20;3.40;;;;;20.50;97409.40;;;;110930;1249;41137;-65
2022/08/07 01:12:34;;;;;;;6.70;3.00;;;;;20.50;97409.00;;;;111148;1246;42382;-65
2022/08/07 01:15:06;;;;;;;9.00;3.50;;;;;20.48;97411.60;;;;110728;1251;41607;-67
2022/08/07 01:17:40;;;;;;;7.50;3.30;;;;;20.44;97411.80;;;;109429;1251;1792344;-65
2022/08/07 01:20:12;;;;;;;7.20;3.50;;;;;20.40;97412.00;;;;111119;1248;42362;-65
2022/08/07 01:22:47;;;;;;;8.90;4.00;;;;;20.40;97407.40;;;;110814;1248;41472;-65
2022/08/07 01:25:32;;;;;;;9.60;3.80;;;;;20.30;97406.40;;;;111133;1248;41630;-65
2022/08/07 01:28:23;;;;;;;10.00;4.00;;;;;20.20;97407.40;;;;111182;1248;41272;-66
2022/08/07 01:30:56;;;;;;;8.90;4.30;;;;;20.14;97409.20;;;;110730;1250;41266;-66
2022/08/07 01:33:28;;;;;;;9.20;4.10;;;;;20.10;97405.00;;;;110849;1249;41620;-66
2022/08/07 01:36:21;;;;;;;7.80;3.70;;;;;20.00;97405.00;;;;110849;1250;42119;-65
2022/08/07 01:39:08;;;;;;;8.70;3.50;;;;;20.00;97405.20;;;;110993;1248;42150;-64
2022/08/07 01:41:44;;;;;;;8.40;4.00;;;;;19.96;97413.60;;;;110902;1248;41918;-67
2022/08/07 01:44:37;;;;;;;10.00;3.90;;;;;19.90;97411.00;;;;110980;1249;41147;-66
2022/08/07 01:47:11;;;;;;;8.50;4.10;;;;;19.90;97411.80;;;;110878;1249;41157;-66
2022/08/07 01:50:04;;;;;;;9.30;4.60;;;;;19.90;97414.00;;;;111207;1250;41152;-66
2022/08/07 01:52:36;;;;;;;9.60;4.70;;;;;19.70;97411.80;;;;110907;1250;41484;-66
2022/08/07 01:55:36;;;;;;;9.00;4.50;;;;;19.58;97415.20;;;;110764;1250;41276;-66
2022/08/07 01:58:10;;;;;;;9.60;4.50;;;;;19.60;97412.80;;;;111092;1249;41376;-66
2022/08/07 02:01:03;;;;;;;10.60;4.80;;;;;19.46;97413.40;;;;110906;1248;41128;-66
2022/08/07 02:03:42;;;;;;;10.20;4.40;;;;;19.40;97409.40;;;;110842;1247;41623;-64
2022/08/07 02:06:20;;;;;;;9.70;4.70;;;;;19.40;97413.40;;;;111250;1248;41229;-67
2022/08/07 02:09:04;;;;;;;9.10;4.50;;;;;19.40;97418.20;;;;111291;1247;41331;-67
2022/08/07 02:11:39;;;;;;;9.30;4.80;;;;;19.40;97417.40;;;;111191;1248;41124;-67
2022/08/07 02:14:35;;;;;;;9.50;4.30;;;;;19.40;97418.80;;;;111177;1248;41254;-66
2022/08/07 02:17:17;;;;;;;9.00;4.20;;;;;19.42;97415.60;;;;111054;1247;42200;-66
2022/08/07 02:19:58;;;;;;;12.20;4.50;;;;;19.50;97415.40;;;;111108;1248;41278;-65
2022/08/07 02:22:40;;;;;;;11.10;4.70;;;;;19.40;97414.40;;;;111226;1247;41267;-65
2022/08/07 02:25:18;;;;;;;8.30;3.90;;;;;19.40;97414.00;;;;111095;1249;41414;-66
2022/08/07 02:28:18;;;;;;;8.00;3.30;;;;;19.34;97412.60;;;;111125;1248;41707;-66
2022/08/07 02:30:57;;;;;;;8.20;3.20;;;;;19.32;97412.80;;;;110869;1250;41665;-66
2022/08/07 02:33:29;;;;;;;7.40;3.20;;;;;19.30;97410.40;;;;111139;1248;41216;-66
2022/08/07 02:36:15;;;;;;;7.20;3.00;;;;;19.32;97411.40;;;;110878;1250;41157;-65
2022/08/07 02:39:00;;;;;;;9.00;4.00;;;;;19.30;97412.80;;;;111102;1248;41350;-66
2022/08/07 02:41:30;;;;;;;9.40;4.50;;;;;19.30;97413.40;;;;110910;1247;41147;-66
2022/08/07 02:44:07;;;;;;;7.40;3.40;;;;;19.20;97412.20;;;;111334;1247;42378;-66
2022/08/07 02:46:39;;;;;;;7.70;3.30;;;;;19.20;97414.20;;;;111168;1247;41833;-65
2022/08/07 02:49:17;;;;;;;8.10;3.30;;;;;19.20;97415.00;;;;111248;1246;41147;-66
2022/08/07 02:52:13;;;;;;;8.00;3.30;;;;;19.20;97419.20;;;;111198;1246;41164;-66
2022/08/07 02:54:44;;;;;;;11.20;3.70;;;;;19.20;97417.00;;;;111044;1250;41604;-65
2022/08/07 02:57:19;;;;;;;10.10;4.80;;;;;19.20;97418.40;;;;110914;1247;42105;-66
2022/08/07 02:59:51;;;;;;;9.40;4.60;;;;;19.22;97423.40;;;;111072;1248;41147;-66
2022/08/07 03:02:24;;;;;;;9.00;4.40;;;;;19.30;97427.40;;;;110818;1247;41180;-65
2022/08/07 03:04:56;;;;;;;9.20;4.30;;;;;19.30;97423.80;;;;111140;1247;41727;-66
2022/08/07 03:07:30;;;;;;;8.90;4.50;;;;;19.30;97424.40;;;;110852;1247;41741;-66
2022/08/07 03:10:16;;;;;;;9.80;4.50;;;;;19.38;97428.20;;;;111026;1250;41816;-66
2022/08/07 03:12:51;;;;;;;9.40;4.70;;;;;19.40;97431.40;;;;111243;1247;41124;-67
2022/08/07 03:15:22;;;;;;;16.20;4.90;;;;;19.22;97437.20;;;;110966;1247;41492;-66
2022/08/07 03:18:00;;;;;;;8.90;4.60;;;;;19.10;97432.20;;;;111338;1247;40889;-66
2022/08/07 03:20:31;;;;;;;9.30;4.30;;;;;19.00;97436.80;;;;110770;1247;41158;-66
2022/08/07 03:23:03;;;;;;;15.70;4.80;;;;;18.80;97441.20;;;;110873;1247;41802;-66
2022/08/07 03:25:35;;;;;;;11.70;5.10;;;;;18.70;97444.00;;;;111156;1247;41148;-66
2022/08/07 03:28:12;;;;;;;10.90;4.40;;;;;18.56;97448.20;;;;110764;1249;41267;-66
2022/08/07 03:31:20;;;;;;;9.90;4.40;;;;;18.60;97445.40;;;;111035;1248;41906;-65
2022/08/07 03:33:57;;;;;;;8.20;3.90;;;;;18.70;97445.40;;;;110729;1247;41308;-67
2022/08/07 03:36:29;;;;;;;9.80;4.20;;;;;18.78;97439.60;;;;110822;1247;41777;-65
2022/08/07 03:39:11;;;;;;;9.30;4.60;;;;;18.80;97443.00;;;;110844;1247;41147;-66
2022/08/07 03:41:46;;;;;;;9.10;4.50;;;;;18.90;97443.60;;;;110774;1247;41169;-66
2022/08/07 03:44:20;;;;;;;9.00;4.30;;;;;18.94;97449.00;;;;110994;1248;41214;-65
2022/08/07 03:47:03;;;;;;;9.70;4.50;;;;;19.00;97443.20;;;;111066;1248;41816;-66
2022/08/07 03:49:42;;;;;;;8.30;4.20;;;;;19.10;97445.00;;;;110980;1250;41255;-67
2022/08/07 03:52:17;;;;;;;9.40;3.90;;;;;19.16;97445.80;;;;111047;1249;42588;-69
2022/08/07 03:54:57;;;;;;;8.70;4.00;;;;;19.20;97448.40;;;;111115;1248;41198;-66
2022/08/07 03:57:35;;;;;;;8.60;3.90;;;;;19.30;97452.80;;;;111244;1247;41177;-65
2022/08/07 04:00:30;;;;;;;8.60;4.10;;;;;19.30;97451.60;;;;111288;1247;41159;-65
2022/08/07 04:03:02;;;;;;;9.00;4.30;;;;;19.40;97452.20;;;;111060;1247;41162;-66
2022/08/07 04:05:38;;;;;;;9.20;4.30;;;;;19.50;97451.40;;;;111295;1247;41356;-65
2022/08/07 04:08:17;;;;;;;7.80;3.80;;;;;19.60;97454.00;;;;111165;1248;41425;-66
2022/08/07 04:10:51;;;;;;;9.00;4.30;;;;;19.94;97455.20;;;;111344;1248;41158;-66
2022/08/07 04:13:44;;;;;;;9.80;4.60;;;;;20.40;97450.80;;;;111415;1247;41196;-66
2022/08/07 04:16:36;;;;;;;10.10;3.80;;;;;20.80;97449.40;;;;110942;1249;41243;-67
2022/08/07 04:19:07;;;;;;;12.70;4.00;;;;;21.18;97456.60;;;;111001;1248;41401;-66
2022/08/07 04:21:44;;;;;;;8.40;4.10;;;;;21.60;97452.80;;;;110935;1249;41605;-67
2022/08/07 04:24:28;;;;;;;7.60;3.60;;;;;22.10;97455.20;;;;111225;1247;42662;-67
2022/08/07 04:27:01;;;;;;;8.10;3.60;;;;;22.64;97453.40;;;;111217;1248;41593;-65
2022/08/07 04:29:33;;;;;;;8.40;3.60;;;;;23.10;97451.40;;;;111198;1249;41132;-68
2022/08/07 04:32:16;;;;;;;8.00;3.60;;;;;23.60;97440.80;;;;110890;1247;41621;-67
2022/08/07 04:34:56;;;;;;;7.80;3.50;;;;;24.12;97433.80;;;;111248;1247;41145;-66
2022/08/07 04:37:26;;;;;;;7.10;3.40;;;;;24.60;97429.40;;;;111069;1247;41415;-66
2022/08/07 04:39:56;;;;;;;7.50;3.50;;;;;25.02;97425.40;;;;111172;1247;41265;-66
2022/08/07 04:42:30;;;;;;;7.40;3.30;;;;;25.46;97425.20;;;;111353;1247;41114;-67
2022/08/07 04:45:02;;;;;;;9.00;3.90;;;;;25.90;97426.40;;;;111244;1247;41250;-67
2022/08/07 04:47:45;;;;;;;7.20;3.30;;;;;26.30;97426.00;;;;111041;1248;41156;-67
2022/08/07 04:50:42;;;;;;;7.20;3.00;;;;;26.72;97429.00;;;;111265;1247;41619;-65
2022/08/07 04:53:33;;;;;;;7.80;3.40;;;;;27.20;97430.00;;;;111129;1248;41501;-67
2022/08/07 04:56:39;;;;;;;7.50;3.10;;;;;27.66;97427.40;;;;111296;1247;41191;-68
2022/08/07 04:59:36;;;;;;;11.50;3.40;;;;;28.20;97425.60;;;;111237;1247;41212;-66
2022/08/07 05:02:35;;;;;;;23.90;11.70;;;;;28.58;97433.60;;;;111145;1247;41623;-67
2022/08/07 05:05:09;;;;;;;24.30;11.70;;;;;28.70;97430.00;;;;111277;1247;41591;-67
2022/08/07 05:07:57;;;;;;;66.30;27.50;;;;;28.52;97433.60;;;;111218;1247;41268;-67
2022/08/07 05:10:38;;;;;;;172.20;72.70;;;;;28.24;97435.80;;;;111113;1248;41134;-68
2022/08/07 05:13:16;;;;;;;122.50;53.20;;;;;27.70;97440.20;;;;110752;1249;41127;-66
2022/08/07 05:16:07;;;;;;;86.20;42.40;;;;;27.92;97444.20;;;;111297;1247;41253;-65
2022/08/07 05:18:46;;;;;;;84.00;43.20;;;;;28.20;97448.40;;;;110996;1247;41328;-68
2022/08/07 05:21:17;;;;;;;63.40;33.20;;;;;28.50;97448.00;;;;111338;1247;41284;-67
2022/08/07 05:23:57;;;;;;;65.00;33.90;;;;;29.10;97448.60;;;;111254;1247;41250;-66
2022/08/07 05:26:28;;;;;;;53.70;28.80;;;;;29.60;97447.80;;;;111351;1247;41566;-67
2022/08/07 05:29:03;;;;;;;35.30;17.60;;;;;29.90;97449.20;;;;111070;1247;42515;-67
2022/08/07 05:31:37;;;;;;;21.20;10.00;;;;;30.30;97445.80;;;;111279;1247;41633;-67
2022/08/07 05:34:13;;;;;;;19.00;8.40;;;;;30.70;97452.20;;;;111081;1247;41172;-68
2022/08/07 05:36:49;;;;;;;11.50;5.20;;;;;31.02;97452.80;;;;110827;1250;41209;-68
2022/08/07 05:39:25;;;;;;;9.80;3.90;;;;;31.32;97453.00;;;;111328;1246;41278;-68
2022/08/07 05:42:15;;;;;;;8.00;3.20;;;;;31.80;97454.60;;;;111268;1247;42105;-67
2022/08/07 05:45:01;;;;;;;7.40;2.90;;;;;32.00;97453.80;;;;111148;1247;42212;-68
2022/08/07 05:47:41;;;;;;;7.10;3.20;;;;;32.10;97458.00;;;;111244;1247;41744;-68
2022/08/07 05:50:32;;;;;;;6.30;2.90;;;;;32.32;97457.40;;;;111288;1246;41695;-67
2022/08/07 05:53:03;;;;;;;7.10;2.90;;;;;32.70;97456.80;;;;111245;1247;41157;-68
2022/08/07 05:55:33;;;;;;;7.00;2.90;;;;;32.94;97461.20;;;;111091;1247;41151;-67
2022/08/07 05:58:24;;;;;;;7.20;2.90;;;;;33.14;97457.20;;;;111297;1247;41258;-69
2022/08/07 06:01:05;;;;;;;8.00;3.20;;;;;33.30;97455.40;;;;111096;1247;41153;-69
2022/08/07 06:03:42;;;;;;;6.90;3.00;;;;;33.30;97454.00;;;;111096;1247;41245;-68
2022/08/07 06:06:22;;;;;;;7.80;3.30;;;;;33.22;97453.00;;;;110853;1247;41557;-69
2022/08/07 06:08:53;;;;;;;9.30;4.70;;;;;33.38;97458.40;;;;110993;1247;41198;-68
2022/08/07 06:11:22;;;;;;;9.60;3.50;;;;;33.24;97458.40;;;;110783;1250;41591;-68
2022/08/07 06:13:52;;;;;;;7.90;3.20;;;;;33.20;97465.60;;;;110913;1250;41151;-68
2022/08/07 06:16:45;;;;;;;8.20;2.80;;;;;33.60;97468.80;;;;111466;1247;41151;-68
2022/08/07 06:19:19;;;;;;;10.00;3.20;;;;;34.00;97469.60;;;;111235;1247;41637;-68
2022/08/07 06:22:09;;;;;;;7.30;3.10;;;;;33.96;97474.00;;;;111087;1247;41125;-68
2022/08/07 06:24:40;;;;;;;9.10;3.00;;;;;33.64;97474.20;;;;111228;1247;41331;-68
2022/08/07 06:27:23;;;;;;;7.60;3.10;;;;;33.54;97473.00;;;;111007;1247;41264;-68
2022/08/07 06:30:15;;;;;;;11.70;5.30;;;;;34.00;97474.80;;;;111162;1247;41158;-69
2022/08/07 06:33:01;;;;;;;7.40;3.00;;;;;34.14;97473.40;;;;111041;1248;41341;-69
2022/08/07 06:35:33;;;;;;;8.40;3.50;;;;;34.30;97475.00;;;;110957;1247;41256;-68
2022/08/07 06:38:13;;;;;;;7.50;3.00;;;;;34.40;97472.60;;;;111246;1247;41627;-69
2022/08/07 06:40:53;;;;;;;6.40;2.90;;;;;34.50;97475.40;;;;110832;1248;42015;-70
2022/08/07 06:43:23;;;;;;;6.80;3.00;;;;;34.90;97480.00;;;;111074;1247;41260;-67
2022/08/07 06:46:07;;;;;;;6.80;3.00;;;;;34.74;97478.60;;;;111277;1245;40890;-70
2022/08/07 06:48:40;;;;;;;6.70;2.70;;;;;35.00;97471.80;;;;111145;1247;41131;-68
2022/08/07 06:51:16;;;;;;;7.30;3.10;;;;;35.50;97472.20;;;;110776;1248;41633;-68
2022/08/07 06:54:05;;;;;;;6.40;2.70;;;;;36.04;97470.80;;;;111050;1248;41163;-69
2022/08/07 06:56:54;;;;;;;7.10;3.10;;;;;36.34;97472.20;;;;110842;1245;41161;-69
2022/08/07 06:59:32;;;;;;;6.40;2.90;;;;;36.10;97469.60;;;;111284;1247;41264;-68
2022/08/07 07:02:24;;;;;;;7.00;2.80;;;;;36.66;97470.40;;;;111322;1246;40860;-68
2022/08/07 07:05:13;;;;;;;6.90;2.70;;;;;37.42;97471.00;;;;111138;1248;41140;-70
2022/08/07 07:08:03;;;;;;;7.40;2.80;;;;;37.50;97468.40;;;;111010;1247;41280;-69
2022/08/07 07:10:35;;;;;;;6.00;2.70;;;;;38.06;97465.00;;;;111012;1249;41136;-69
2022/08/07 07:13:13;;;;;;;6.30;2.60;;;;;38.50;97471.20;;;;111200;1247;42522;-70
2022/08/07 07:15:45;;;;;;;7.50;3.20;;;;;39.00;97464.40;;;;111095;1246;41852;-69
2022/08/07 07:18:22;;;;;;;8.50;2.70;;;;;37.36;97465.60;;;;111091;1246;41143;-70
2022/08/07 07:21:18;;;;;;;7.60;3.20;;;;;37.50;97465.60;;;;111028;1248;41669;-69
2022/08/07 07:23:47;;;;;;;7.40;3.00;;;;;36.82;97469.60;;;;111080;1247;41250;-68
2022/08/07 07:26:37;;;;;;;7.10;2.80;;;;;37.40;97475.80;;;;111009;1248;41155;-69
2022/08/07 07:29:11;;;;;;;8.10;3.30;;;;;38.04;97473.00;;;;111040;1248;41574;-69
2022/08/07 07:32:02;;;;;;;6.10;2.80;;;;;38.14;97471.40;;;;111136;1247;41382;-69
2022/08/07 07:34:32;;;;;;;11.80;2.90;;;;;37.56;97474.00;;;;111116;1247;41123;-70
2022/08/07 07:37:02;;;;;;;6.70;3.00;;;;;37.24;97477.60;;;;111105;1247;41151;-69
2022/08/07 07:39:34;;;;;;;8.30;3.00;;;;;37.30;97482.20;;;;111337;1246;41124;-71
2022/08/07 07:42:21;;;;;;;6.40;2.80;;;;;37.44;97483.20;;;;111168;1248;41137;-71
2022/08/07 07:45:04;;;;;;;6.20;2.80;;;;;37.50;97485.80;;;;111138;1247;41155;-69
2022/08/07 07:47:36;;;;;;;6.00;2.80;;;;;36.84;97489.80;;;;111480;1247;42255;-70
2022/08/07 07:50:21;;;;;;;6.70;2.80;;;;;36.60;97495.60;;;;111213;1246;41460;-69
2022/08/07 07:53:03;;;;;;;7.10;2.80;;;;;36.68;97499.20;;;;111073;1245;42290;-69
2022/08/07 07:55:31;;;;;;;6.10;2.60;;;;;36.62;97498.20;;;;111183;1247;41146;-70
2022/08/07 07:58:05;;;;;;;6.80;2.80;;;;;36.40;97495.80;;;;111061;1247;41145;-70
2022/08/07 08:00:34;;;;;;;8.00;3.00;;;;;36.26;97494.20;;;;111061;1245;41147;-70
2022/08/07 08:03:09;;;;;;;7.20;3.00;;;;;36.04;97493.60;;;;111088;1247;42146;-70
2022/08/07 08:05:44;;;;;;;7.60;2.70;;;;;35.90;97501.80;;;;111217;1246;41590;-70
2022/08/07 08:08:24;;;;;;;7.10;3.20;;;;;35.66;97496.40;;;;111128;1246;41616;-70
2022/08/07 08:11:08;;;;;;;8.10;3.40;;;;;35.44;97490.00;;;;111164;1248;41123;-71
2022/08/07 08:13:45;;;;;;;8.70;2.80;;;;;35.22;97491.80;;;;110850;1250;41174;-69
2022/08/07 08:16:32;;;;;;;7.60;3.40;;;;;35.18;97488.80;;;;110752;1248;41586;-70
2022/08/07 08:19:04;;;;;;;7.10;3.10;;;;;35.44;97494.40;;;;111212;1248;41167;-70
2022/08/07 08:27:36;;;;;;;7.70;3.20;;;;;34.48;97496.80;;;;111059;1248;41347;-69
2022/08/07 08:30:11;;;;;;;7.20;3.20;;;;;34.58;97496.40;;;;110743;1249;41163;-69
2022/08/07 08:32:48;;;;;;;6.30;2.80;;;;;34.94;97499.20;;;;111042;1248;41530;-68
2022/08/07 08:35:23;;;;;;;6.40;2.70;;;;;35.74;97497.20;;;;111107;1246;41593;-71
2022/08/07 08:37:57;;;;;;;7.00;3.00;;;;;36.76;97494.40;;;;110920;1250;41142;-70
2022/08/07 08:40:35;;;;;;;6.10;2.60;;;;;37.34;97486.60;;;;110938;1248;41366;-71
2022/08/07 08:43:27;;;;;;;7.20;3.20;;;;;38.32;97481.80;;;;110928;1248;41152;-71
2022/08/07 08:46:09;;;;;;;6.20;2.60;;;;;38.90;97480.20;;;;110705;1250;41612;-71
2022/08/07 08:49:14;;;;;;;7.20;2.50;;;;;39.12;97480.40;;;;110925;1250;41152;-70
2022/08/07 08:52:07;;;;;;;6.20;2.60;;;;;39.82;97478.00;;;;111202;1248;41151;-71
2022/08/07 08:54:48;;;;;;;6.40;2.70;;;;;40.34;97477.80;;;;110924;1248;41382;-70
2022/08/07 08:57:36;;;;;;;7.40;2.50;;;;;40.84;97472.00;;;;111336;1247;42837;-70
2022/08/07 09:00:08;;;;;;;6.90;2.80;;;;;40.44;97474.20;;;;110938;1249;41372;-69
2022/08/07 09:02:51;;;;;;;6.20;2.80;;;;;40.96;97472.60;;;;111056;1249;41269;-70
2022/08/07 09:05:40;;;;;;;6.10;2.70;;;;;41.78;97467.00;;;;110986;1249;41358;-70
2022/08/07 09:08:19;;;;;;;7.40;2.90;;;;;42.34;97464.80;;;;110834;1247;41535;-71
2022/08/07 09:10:59;;;;;;;6.50;2.90;;;;;42.26;97468.20;;;;111022;1248;41256;-71
2022/08/07 09:13:35;;;;;;;7.20;3.00;;;;;41.82;97467.60;;;;110911;1249;41591;-70
2022/08/07 09:16:41;;;;;;;6.50;2.80;;;;;41.58;97470.40;;;;111095;1249;41146;-71
2022/08/07 09:19:39;;;;;;;6.60;2.80;;;;;41.50;97470.80;;;;110599;1249;42339;-70
2022/08/07 09:22:43;;;;;;;5.80;2.60;;;;;41.40;97470.20;;;;110779;1248;41255;-70
2022/08/07 09:26:12;;;;;;;7.40;3.00;;;;;41.96;97463.80;;;;110912;1248;41161;-71
2022/08/07 09:28:59;;;;;;;6.70;2.60;;;;;41.98;97463.00;;;;111080;1248;41864;-71
2022/08/07 09:32:24;;;;;;;6.00;2.30;;;;;42.30;97461.80;;;;111013;1249;41257;-71
2022/08/07 09:35:05;;;;;;;8.70;3.90;;;;;42.20;97467.40;;;;111170;1247;41719;-70
2022/08/07 09:38:10;;;;;;;;;;;;;41.18;97473.00;;;;111219;1247;42372;-70
2022/08/07 09:40:52;;;;;;;6.20;2.60;;;;;40.84;97462.40;;;;111072;1248;41262;-70
2022/08/07 09:43:47;;;;;;;5.60;2.50;;;;;41.10;97465.20;;;;110972;1248;41442;-71
2022/08/07 09:47:20;;;;;;;6.50;2.80;;;;;41.20;97464.00;;;;110876;1247;41744;-70
2022/08/07 09:50:44;;;;;;;7.60;3.20;;;;;41.44;97457.80;;;;111072;1250;41646;-70
2022/08/07 09:53:37;;;;;;;7.20;2.70;;;;;41.64;97459.00;;;;111227;1248;41546;-70
2022/08/07 09:56:44;;;;;;;7.20;2.50;;;;;42.10;97451.00;;;;110987;1250;41154;-70
2022/08/07 09:59:39;;;;;;;6.80;2.70;;;;;42.52;97446.80;;;;110922;1248;41154;-70
2022/08/07 10:02:40;;;;;;;6.70;2.80;;;;;43.28;97440.00;;;;110838;1248;41201;-72
2022/08/07 10:06:02;;;;;;;6.30;2.70;;;;;43.80;97441.80;;;;111037;1248;42361;-69
2022/08/07 10:09:10;;;;;;;6.50;2.50;;;;;43.16;97440.40;;;;110897;1250;41144;-70
2022/08/07 10:12:24;;;;;;;5.60;2.70;;;;;42.88;97438.80;;;;111031;1247;41178;-69
2022/08/07 10:15:16;;;;;;;5.30;2.30;;;;;43.16;97435.60;;;;110701;1249;42424;-71
2022/08/07 10:17:59;;;;;;;5.40;2.20;;;;;41.90;97437.60;;;;111175;1247;41187;-70
2022/08/07 10:20:55;;;;;;;6.60;2.40;;;;;41.62;97435.60;;;;111521;1246;41615;-70
2022/08/07 10:23:41;;;;;;;6.50;3.00;;;;;41.88;97429.40;;;;111416;1246;41193;-69
2022/08/07 10:26:52;;;;;;;6.30;2.90;;;;;41.90;97435.00;;;;111295;1246;41253;-70
2022/08/07 10:29:59;;;;;;;4.80;2.20;;;;;41.24;97430.20;;;;111243;1246;41610;-70
2022/08/07 10:32:50;;;;;;;6.50;2.20;;;;;40.26;97428.20;;;;111175;1246;41750;-68
2022/08/07 10:35:30;;;;;;;7.80;2.70;;;;;40.02;97432.40;;;;110860;1247;41153;-70
2022/08/07 10:38:40;;;;;;;6.50;2.90;;;;;40.52;97430.80;;;;111188;1247;41716;-71
2022/08/07 10:41:30;;;;;;;6.10;2.60;;;;;39.88;97426.20;;;;111325;1245;42086;-69
2022/08/07 10:44:50;;;;;;;5.70;2.50;;;;;38.30;97426.00;;;;110808;1248;41223;-70
2022/08/07 10:47:40;;;;;;;5.00;2.30;;;;;39.58;97425.20;;;;110784;1250;41594;-69
2022/08/07 10:50:32;;;;;;;5.90;2.50;;;;;38.08;97425.80;;;;111129;1247;41169;-69
2022/08/07 10:53:05;;;;;;;5.40;2.20;;;;;38.70;97428.20;;;;110977;1248;41273;-69
2022/08/07 10:55:41;;;;;;;5.10;1.90;;;;;39.00;97421.40;;;;111270;1246;41220;-70
2022/08/07 10:58:49;;;;;;;6.40;2.60;;;;;38.76;97423.80;;;;111209;1247;42517;-69
2022/08/07 11:01:28;;;;;;;5.40;2.10;;;;;38.90;97419.40;;;;111130;1246;41974;-69
2022/08/07 11:04:21;;;;;;;5.20;2.00;;;;;39.22;97417.40;;;;111296;1247;41281;-69
2022/08/07 11:07:32;;;;;;;6.90;2.40;;;;;39.76;97415.00;;;;111358;1245;41268;-69
2022/08/07 11:10:39;;;;;;;4.90;2.20;;;;;40.02;97409.00;;;;111306;1246;41168;-69
2022/08/07 11:13:22;;;;;;;6.20;2.70;;;;;40.38;97407.20;;;;111232;1246;42570;-70
2022/08/07 11:16:40;;;;;;;5.20;2.30;;;;;38.84;97405.00;;;;110794;1248;41269;-70
2022/08/07 11:19:28;;;;;;;3.90;1.90;;;;;39.96;97395.20;;;;111057;1247;41350;-69
2022/08/07 11:22:15;;;;;;;5.80;2.30;;;;;41.08;97392.60;;;;111380;1247;41211;-70
2022/08/07 11:25:29;;;;;;;6.50;2.70;;;;;40.80;97385.00;;;;111132;1245;41133;-69
2022/08/07 11:28:13;;;;;;;4.80;2.10;;;;;42.30;97375.20;;;;111290;1247;41194;-68
2022/08/07 11:31:31;;;;;;;5.10;2.40;;;;;42.26;97368.00;;;;111060;1247;41153;-70
2022/08/07 11:34:24;;;;;;;6.20;2.10;;;;;41.78;97379.00;;;;110603;1253;41640;-71
2022/08/07 11:36:57;;;;;;;4.90;2.10;;;;;41.60;97376.20;;;;110304;1254;41193;-70
2022/08/07 11:39:46;;;;;;;4.90;2.00;;;;;41.40;97365.60;;;;110853;1250;41168;-70
2022/08/07 11:42:30;;;;;;;;;;;;;41.60;97369.20;;;;110756;1249;41253;-71
2022/08/07 11:45:09;;;;;;;4.50;2.00;;;;;41.88;97363.80;;;;110794;1247;41165;-71
2022/08/07 11:47:41;;;;;;;5.10;2.30;;;;;43.18;97357.80;;;;111409;1246;41631;-70
2022/08/07 11:50:28;;;;;;;4.60;1.90;;;;;44.06;97358.20;;;;111027;1247;41120;-71
2022/08/07 11:53:43;;;;;;;6.40;2.20;;;;;44.86;97353.00;;;;111117;1247;41136;-72
2022/08/07 11:56:59;;;;;;;4.60;2.00;;;;;45.76;97345.00;;;;111271;1247;41161;-71
2022/08/07 12:00:05;;;;;;;4.60;2.00;;;;;46.10;97342.00;;;;111030;1246;41356;-70
2022/08/07 12:03:10;;;;;;;5.30;2.10;;;;;46.56;97340.20;;;;110963;1249;41817;-70
2022/08/07 12:06:15;;;;;;;5.80;2.40;;;;;46.12;97335.40;;;;111344;1247;41600;-70
2022/08/07 12:09:15;;;;;;;4.70;2.20;;;;;46.40;97344.40;;;;111265;1247;41547;-69
2022/08/07 12:12:01;;;;;;;4.30;1.90;;;;;45.00;97338.60;;;;111056;1246;41207;-69
2022/08/07 12:14:54;;;;;;;4.80;2.20;;;;;45.04;97336.20;;;;111369;1246;41131;-70
2022/08/07 12:17:33;;;;;;;4.30;2.10;;;;;45.98;97334.60;;;;111276;1246;41162;-70
2022/08/07 12:20:11;;;;;;;4.40;2.00;;;;;46.34;97335.60;;;;111131;1247;41265;-71
2022/08/07 12:23:28;;;;;;;3.80;1.80;;;;;46.70;97326.20;;;;111201;1245;41146;-71
2022/08/07 12:26:42;;;;;;;2.60;1.60;;;;;47.20;97322.60;;;;111358;1245;42396;-71
2022/08/07 12:29:34;;;;;;;4.40;1.90;;;;;47.60;97313.20;;;;111245;1247;41137;-70
2022/08/07 12:32:30;;;;;;;5.80;2.20;;;;;47.76;97313.60;;;;111268;1245;41642;-71
2022/08/07 12:35:04;;;;;;;4.10;2.00;;;;;47.76;97310.80;;;;111355;1247;41137;-73
2022/08/07 12:37:38;;;;;;;5.20;2.20;;;;;47.40;97313.20;;;;111432;1246;41171;-71
2022/08/07 12:40:31;;;;;;;3.70;1.70;;;;;47.48;97306.60;;;;111113;1247;41908;-70
2022/08/07 12:43:21;;;;;;;3.70;1.80;;;;;46.88;97312.20;;;;110987;1249;41687;-71
2022/08/07 12:46:23;;;;;;;6.50;2.70;;;;;47.02;97308.00;;;;111196;1247;41596;-70
2022/08/07 12:49:21;;;;;;;4.50;1.90;;;;;42.60;97314.40;;;;111350;1247;41392;-71
2022/08/07 12:52:13;;;;;;;4.20;2.00;;;;;41.64;97309.40;;;;111248;1246;41141;-70
2022/08/07 12:55:28;;;;;;;5.50;2.10;;;;;40.98;97310.00;;;;111211;1246;41152;-70
2022/08/07 12:58:11;;;;;;;4.00;2.00;;;;;41.00;97309.40;;;;110571;1247;41145;-70
2022/08/07 13:01:02;;;;;;;4.60;2.10;;;;;40.76;97314.20;;;;111257;1246;41861;-70
2022/08/07 13:03:51;;;;;;;5.70;2.30;;;;;40.66;97311.00;;;;111201;1246;41246;-69
2022/08/07 13:06:29;;;;;;;5.50;2.20;;;;;39.50;97310.20;;;;111201;1246;41528;-70
2022/08/07 13:09:34;;;;;;;6.40;2.30;;;;;39.40;97313.40;;;;111243;1247;41309;-69
2022/08/07 13:12:45;;;;;;;5.10;2.20;;;;;38.90;97311.00;;;;110886;1247;41151;-69
2022/08/07 13:15:27;;;;;;;5.40;2.40;;;;;38.90;97311.20;;;;111310;1247;41121;-69
2022/08/07 13:18:28;;;;;;;5.10;2.30;;;;;38.70;97316.20;;;;110091;1247;1549571;-70
2022/08/07 13:21:09;;;;;;;5.60;2.20;;;;;38.52;97315.60;;;;111109;1248;41167;-70
2022/08/07 13:24:07;;;;;;;5.10;2.30;;;;;38.20;97315.60;;;;110921;1247;41633;-69
2022/08/07 13:26:41;;;;;;;5.10;2.10;;;;;37.94;97310.40;;;;111129;1246;41216;-68
2022/08/07 13:29:42;;;;;;;4.90;2.10;;;;;37.68;97316.00;;;;111016;1246;41157;-69
2022/08/07 13:32:44;;;;;;;5.60;2.40;;;;;37.50;97313.80;;;;111337;1247;41133;-70
2022/08/07 13:35:38;;;;;;;6.20;2.50;;;;;37.40;97315.00;;;;111305;1245;41124;-72